Time,TemperatureF,DewpointF,PressureIn,WindDirection,WindDirectionDegrees,WindSpeedMPH,WindSpeedGustMPH,Humidity,HourlyPrecipIn,Conditions,Clouds,dailyrainin,SoftwareType,DateUTC
2013-12-23 00:01:00,63.0,62.6,29.93,SW,225,1.6,1.6,99,0.15,,,0.40,meteobridge,2013-12-23 05:01:00,
2013-12-23 00:02:00,63.0,62.6,29.93,SW,225,1.6,1.6,99,0.15,,,0.40,meteobridge,2013-12-23 05:02:00,
2013-12-23 00:03:00,63.0,62.6,29.93,SW,225,1.6,1.6,99,0.15,,,0.40,meteobridge,2013-12-23 05:03:00,
2013-12-23 00:04:00,63.0,62.6,29.94,SW,225,1.6,1.6,99,0.15,,,0.40,meteobridge,2013-12-23 05:04:00,
2013-12-23 00:10:00,63.3,63.0,29.93,SW,225,1.6,1.6,99,0.17,,,0.44,meteobridge,2013-12-23 05:10:00,
2013-12-23 00:15:00,63.0,62.6,29.94,SW,225,3.1,3.1,99,0.15,,,0.45,meteobridge,2013-12-23 05:15:00,
2013-12-23 00:16:00,63.1,62.8,29.93,SW,225,2.2,3.1,99,0.15,,,0.45,meteobridge,2013-12-23 05:16:00,
2013-12-23 00:22:00,63.1,62.8,29.93,South,180,2.2,3.1,99,0.14,,,0.46,meteobridge,2013-12-23 05:22:00,
2013-12-23 00:28:00,63.0,62.6,29.93,South,180,1.6,1.6,99,0.17,,,0.48,meteobridge,2013-12-23 05:28:00,
2013-12-23 00:34:00,63.0,62.6,29.93,South,180,5.4,5.4,99,0.15,,,0.50,meteobridge,2013-12-23 05:34:00,
2013-12-23 00:40:00,63.0,62.6,29.94,SW,225,3.8,3.8,99,0.17,,,0.51,meteobridge,2013-12-23 05:40:00,
2013-12-23 00:46:00,63.0,62.6,29.95,SW,225,1.6,2.2,99,0.14,,,0.51,meteobridge,2013-12-23 05:46:00,
2013-12-23 00:51:00,63.0,62.6,29.94,SW,225,1.6,1.6,99,0.17,,,0.53,meteobridge,2013-12-23 05:51:00,
2013-12-23 00:57:00,63.0,62.6,29.93,NW,315,2.2,2.2,99,0.14,,,0.53,meteobridge,2013-12-23 05:57:00,
2013-12-23 01:03:00,63.0,62.6,29.92,SW,225,2.2,2.2,99,0.13,,,0.53,meteobridge,2013-12-23 06:03:00,
2013-12-23 01:09:00,63.0,62.6,29.92,SW,225,2.2,2.2,99,0.11,,,0.53,meteobridge,2013-12-23 06:09:00,
2013-12-23 01:15:00,62.8,62.4,29.92,SW,225,2.2,3.1,99,0.09,,,0.54,meteobridge,2013-12-23 06:15:00,
2013-12-23 01:21:00,63.0,62.6,29.93,SW,225,2.2,2.2,99,0.08,,,0.54,meteobridge,2013-12-23 06:21:00,
2013-12-23 01:27:00,63.0,62.6,29.92,SW,225,2.2,2.2,99,0.06,,,0.54,meteobridge,2013-12-23 06:27:00,
2013-12-23 01:33:00,62.8,62.4,29.91,South,180,2.2,2.2,99,0.06,,,0.54,meteobridge,2013-12-23 06:33:00,
2013-12-23 01:38:00,62.8,62.4,29.92,South,180,2.2,3.1,99,0.04,,,0.54,meteobridge,2013-12-23 06:38:00,
2013-12-23 01:44:00,62.8,62.4,29.92,South,180,2.2,2.2,99,0.04,,,0.54,meteobridge,2013-12-23 06:44:00,
2013-12-23 01:50:00,62.8,62.4,29.93,SW,225,1.6,1.6,99,0.01,,,0.54,meteobridge,2013-12-23 06:50:00,
2013-12-23 01:56:00,62.8,62.4,29.93,SW,225,1.6,1.6,99,0.01,,,0.54,meteobridge,2013-12-23 06:56:00,
2013-12-23 02:02:00,62.8,62.4,29.92,SW,225,1.6,1.6,99,0.01,,,0.54,meteobridge,2013-12-23 07:02:00,
2013-12-23 02:08:00,62.8,62.4,29.92,SW,225,1.6,1.6,99,0.01,,,0.54,meteobridge,2013-12-23 07:08:00,
2013-12-23 02:14:00,62.6,62.2,29.92,SW,225,6.0,6.9,99,0.00,,,0.54,meteobridge,2013-12-23 07:14:00,
2013-12-23 02:20:00,62.6,62.2,29.93,SW,225,2.2,6.0,99,0.00,,,0.54,meteobridge,2013-12-23 07:20:00,
2013-12-23 02:25:00,62.6,62.2,29.93,West,270,6.0,6.0,99,0.01,,,0.56,meteobridge,2013-12-23 07:25:00,
2013-12-23 02:31:00,62.6,62.2,29.93,SW,225,1.6,4.5,99,0.01,,,0.56,meteobridge,2013-12-23 07:31:00,
2013-12-23 02:37:00,62.4,62.1,29.93,South,180,6.0,6.0,99,0.02,,,0.57,meteobridge,2013-12-23 07:37:00,
2013-12-23 02:43:00,62.4,62.1,29.92,NW,315,1.6,4.5,99,0.04,,,0.58,meteobridge,2013-12-23 07:43:00,
2013-12-23 02:49:00,62.4,62.1,29.92,SW,225,1.6,1.6,99,0.04,,,0.58,meteobridge,2013-12-23 07:49:00,
2013-12-23 02:55:00,62.4,62.1,29.92,SW,225,2.2,2.2,99,0.05,,,0.59,meteobridge,2013-12-23 07:55:00,
2013-12-23 03:01:00,62.2,61.9,29.91,West,270,2.2,2.2,99,0.06,,,0.60,meteobridge,2013-12-23 08:01:00,
2013-12-23 03:07:00,62.2,61.9,29.91,West,270,2.2,2.2,99,0.06,,,0.60,meteobridge,2013-12-23 08:07:00,
2013-12-23 03:12:00,62.2,61.9,29.91,West,270,0.0,0.7,99,0.08,,,0.63,meteobridge,2013-12-23 08:12:00,
2013-12-23 03:18:00,62.2,61.9,29.91,West,270,0.0,0.7,99,0.11,,,0.65,meteobridge,2013-12-23 08:18:00,
2013-12-23 03:24:00,62.1,61.7,29.91,West,270,0.0,0.0,99,0.11,,,0.66,meteobridge,2013-12-23 08:24:00,
2013-12-23 03:30:00,62.1,61.7,29.91,SW,225,1.6,1.6,99,0.12,,,0.67,meteobridge,2013-12-23 08:30:00,
2013-12-23 03:36:00,62.2,61.9,29.91,SW,225,0.7,2.2,99,0.13,,,0.70,meteobridge,2013-12-23 08:36:00,
2013-12-23 03:42:00,62.2,61.9,29.91,SW,225,2.2,2.2,99,0.12,,,0.70,meteobridge,2013-12-23 08:42:00,
2013-12-23 03:48:00,62.2,61.9,29.90,SW,225,2.2,3.1,99,0.14,,,0.72,meteobridge,2013-12-23 08:48:00,
2013-12-23 03:54:00,62.2,61.9,29.90,SW,225,0.7,2.2,99,0.17,,,0.74,meteobridge,2013-12-23 08:54:00,
2013-12-23 03:59:00,62.1,61.7,29.91,SW,225,0.0,0.0,99,0.14,,,0.74,meteobridge,2013-12-23 08:59:00,
2013-12-23 04:05:00,62.1,61.7,29.90,SW,225,0.0,0.0,99,0.14,,,0.74,meteobridge,2013-12-23 09:05:00,
2013-12-23 04:11:00,62.1,61.7,29.89,SW,225,0.7,2.2,99,0.14,,,0.77,meteobridge,2013-12-23 09:11:00,
2013-12-23 04:17:00,62.1,61.7,29.90,SW,225,2.2,3.8,99,0.13,,,0.77,meteobridge,2013-12-23 09:17:00,
2013-12-23 04:23:00,62.1,61.7,29.91,SW,225,0.0,0.7,99,0.12,,,0.77,meteobridge,2013-12-23 09:23:00,
2013-12-23 04:29:00,62.1,61.7,29.92,SW,225,1.6,1.6,99,0.09,,,0.77,meteobridge,2013-12-23 09:29:00,
2013-12-23 04:35:00,62.1,61.7,29.92,SW,225,0.7,2.2,99,0.09,,,0.79,meteobridge,2013-12-23 09:35:00,
2013-12-23 04:41:00,61.9,61.5,29.92,SW,225,2.2,2.2,99,0.11,,,0.80,meteobridge,2013-12-23 09:41:00,
2013-12-23 04:46:00,61.9,61.5,29.91,East,90,3.1,3.1,99,0.09,,,0.81,meteobridge,2013-12-23 09:46:00,
2013-12-23 04:52:00,61.9,61.5,29.91,SW,225,3.1,3.1,99,0.09,,,0.84,meteobridge,2013-12-23 09:52:00,
2013-12-23 04:58:00,61.9,61.5,29.90,SW,225,0.7,0.7,99,0.12,,,0.86,meteobridge,2013-12-23 09:58:00,
2013-12-23 05:04:00,61.9,61.5,29.91,SW,225,0.7,0.7,99,0.12,,,0.86,meteobridge,2013-12-23 10:04:00,
2013-12-23 05:10:00,61.7,61.3,29.91,SW,225,2.2,2.2,99,0.09,,,0.86,meteobridge,2013-12-23 10:10:00,
2013-12-23 05:16:00,61.7,61.3,29.92,SW,225,0.7,1.6,99,0.11,,,0.87,meteobridge,2013-12-23 10:16:00,
2013-12-23 05:22:00,61.7,61.3,29.91,SW,225,0.7,1.6,99,0.12,,,0.89,meteobridge,2013-12-23 10:22:00,
2013-12-23 05:28:00,61.7,61.3,29.91,SW,225,2.2,3.8,99,0.12,,,0.89,meteobridge,2013-12-23 10:28:00,
2013-12-23 05:33:00,61.5,61.2,29.92,SW,225,2.2,2.2,99,0.12,,,0.90,meteobridge,2013-12-23 10:33:00,
2013-12-23 05:39:00,61.0,60.6,29.91,SW,225,1.6,3.1,99,0.12,,,0.91,meteobridge,2013-12-23 10:39:00,
2013-12-23 05:45:00,60.8,60.4,29.91,SW,225,3.8,3.8,99,0.11,,,0.92,meteobridge,2013-12-23 10:45:00,
2013-12-23 05:51:00,60.4,60.1,29.91,SW,225,2.2,2.2,99,0.09,,,0.93,meteobridge,2013-12-23 10:51:00,
2013-12-23 05:57:00,60.4,60.1,29.92,SW,225,3.8,3.8,99,0.08,,,0.93,meteobridge,2013-12-23 10:57:00,
2013-12-23 06:03:00,60.3,59.9,29.91,SW,225,2.2,2.2,99,0.07,,,0.93,meteobridge,2013-12-23 11:03:00,
2013-12-23 06:09:00,60.3,59.9,29.90,SW,225,0.0,2.2,99,0.08,,,0.94,meteobridge,2013-12-23 11:09:00,
2013-12-23 06:14:00,60.1,59.7,29.91,SW,225,0.0,0.0,99,0.07,,,0.94,meteobridge,2013-12-23 11:14:00,
2013-12-23 06:20:00,60.3,59.9,29.90,SW,225,0.0,0.0,99,0.07,,,0.96,meteobridge,2013-12-23 11:20:00,
2013-12-23 06:26:00,60.1,59.7,29.91,SW,225,0.7,0.7,99,0.07,,,0.96,meteobridge,2013-12-23 11:26:00,
2013-12-23 06:32:00,60.1,59.7,29.92,SW,225,1.6,2.2,99,0.08,,,0.97,meteobridge,2013-12-23 11:32:00,
2013-12-23 06:38:00,60.1,59.7,29.91,SW,225,1.6,1.6,99,0.07,,,0.98,meteobridge,2013-12-23 11:38:00,
2013-12-23 06:44:00,60.1,59.7,29.91,SW,225,1.6,1.6,99,0.07,,,0.98,meteobridge,2013-12-23 11:44:00,
2013-12-23 06:50:00,60.1,59.7,29.92,SW,225,0.0,0.7,99,0.05,,,0.98,meteobridge,2013-12-23 11:50:00,
2013-12-23 06:56:00,60.1,59.7,29.93,West,270,0.0,1.6,99,0.06,,,0.99,meteobridge,2013-12-23 11:56:00,
2013-12-23 07:01:00,60.1,59.7,29.94,West,270,0.7,0.7,99,0.06,,,0.99,meteobridge,2013-12-23 12:01:00,
2013-12-23 07:07:00,60.3,59.9,29.95,SW,225,3.1,3.1,99,0.07,,,1.00,meteobridge,2013-12-23 12:07:00,
2013-12-23 07:13:00,60.3,59.9,29.95,SW,225,1.6,3.8,99,0.06,,,1.00,meteobridge,2013-12-23 12:13:00,
2013-12-23 07:19:00,60.3,59.9,29.95,SW,225,4.5,5.4,99,0.06,,,1.02,meteobridge,2013-12-23 12:19:00,
2013-12-23 07:25:00,60.3,59.9,29.95,SW,225,3.8,4.5,99,0.07,,,1.03,meteobridge,2013-12-23 12:25:00,
2013-12-23 07:31:00,60.1,59.7,29.95,SW,225,6.9,6.9,99,0.06,,,1.03,meteobridge,2013-12-23 12:31:00,
2013-12-23 07:37:00,60.1,59.7,29.94,SE,135,5.4,7.6,99,0.06,,,1.04,meteobridge,2013-12-23 12:37:00,
2013-12-23 07:43:00,59.9,59.5,29.93,West,270,1.6,3.1,99,0.07,,,1.05,meteobridge,2013-12-23 12:43:00,
2013-12-23 07:48:00,59.9,59.5,29.94,West,270,1.6,2.2,99,0.07,,,1.05,meteobridge,2013-12-23 12:48:00,
2013-12-23 07:54:00,59.9,59.5,29.95,SW,225,1.6,3.8,99,0.07,,,1.06,meteobridge,2013-12-23 12:54:00,
2013-12-23 08:00:00,59.7,59.4,29.96,SW,225,3.8,3.8,99,0.08,,,1.07,meteobridge,2013-12-23 13:00:00,
2013-12-23 08:06:00,59.7,59.4,29.95,SW,225,3.8,3.8,99,0.08,,,1.07,meteobridge,2013-12-23 13:06:00,
2013-12-23 08:12:00,59.5,59.2,29.94,SW,225,0.0,0.0,99,0.07,,,1.07,meteobridge,2013-12-23 13:12:00,
2013-12-23 08:18:00,59.4,59.0,29.95,SW,225,0.0,0.0,99,0.06,,,1.07,meteobridge,2013-12-23 13:18:00,
2013-12-23 08:24:00,59.4,59.0,29.96,SW,225,0.0,-999.0,99,0.05,,,1.07,meteobridge,2013-12-23 13:24:00,
2013-12-23 08:30:00,59.4,59.0,29.96,SW,225,0.0,-999.0,99,0.05,,,1.07,meteobridge,2013-12-23 13:30:00,
2013-12-23 08:35:00,-999.0,-99.9,29.96,North,-999,-999.0,-999.0,-999,0.04,,,1.07,meteobridge,2013-12-23 13:35:00,
2013-12-23 08:41:00,59.0,58.6,29.96,SW,225,0.7,1.6,99,0.05,,,1.10,meteobridge,2013-12-23 13:41:00,
2013-12-23 08:47:00,59.0,58.6,29.96,SW,225,0.7,0.7,99,0.05,,,1.10,meteobridge,2013-12-23 13:47:00,
2013-12-23 08:53:00,59.0,58.6,29.95,SW,225,3.1,3.1,99,0.04,,,1.10,meteobridge,2013-12-23 13:53:00,
2013-12-23 08:59:00,58.6,58.3,29.96,SW,225,1.6,1.6,99,0.02,,,1.10,meteobridge,2013-12-23 13:59:00,
2013-12-23 09:05:00,58.6,58.3,29.97,SW,225,1.6,1.6,99,0.02,,,1.10,meteobridge,2013-12-23 14:05:00,
2013-12-23 09:11:00,58.6,58.3,29.97,SW,225,1.6,-999.0,99,0.02,,,1.10,meteobridge,2013-12-23 14:11:00,
2013-12-23 09:17:00,58.6,58.3,29.98,SW,225,1.6,-999.0,99,0.02,,,1.10,meteobridge,2013-12-23 14:17:00,
2013-12-23 09:23:00,-999.0,-99.9,29.98,North,-999,-999.0,-999.0,-999,0.00,,,1.10,meteobridge,2013-12-23 14:23:00,
2013-12-23 09:28:00,58.6,58.3,29.98,SW,225,1.6,1.6,99,0.02,,,1.12,meteobridge,2013-12-23 14:28:00,
2013-12-23 09:34:00,58.5,58.1,29.97,SW,225,1.6,3.1,99,0.05,,,1.15,meteobridge,2013-12-23 14:34:00,
2013-12-23 09:40:00,58.3,57.9,29.96,SW,225,3.1,3.1,99,0.05,,,1.15,meteobridge,2013-12-23 14:40:00,
2013-12-23 09:46:00,58.3,57.9,29.95,SW,225,2.2,2.2,99,0.05,,,1.15,meteobridge,2013-12-23 14:46:00,
2013-12-23 09:52:00,58.1,57.7,29.96,SW,225,0.0,0.7,99,0.05,,,1.15,meteobridge,2013-12-23 14:52:00,
2013-12-23 09:58:00,58.1,57.7,29.95,SW,225,2.2,3.8,99,0.05,,,1.15,meteobridge,2013-12-23 14:58:00,
2013-12-23 10:04:00,58.1,57.7,29.95,SW,225,0.0,0.0,99,0.05,,,1.15,meteobridge,2013-12-23 15:04:00,
2013-12-23 10:09:00,58.1,57.7,29.96,West,270,2.2,2.2,99,0.04,,,1.16,meteobridge,2013-12-23 15:09:00,
2013-12-23 10:15:00,58.1,57.7,29.97,West,270,1.6,1.6,99,0.04,,,1.16,meteobridge,2013-12-23 15:15:00,
2013-12-23 10:21:00,58.1,57.7,29.98,West,270,1.6,2.2,99,0.04,,,1.16,meteobridge,2013-12-23 15:21:00,
2013-12-23 10:27:00,58.1,57.7,29.98,West,270,0.0,2.2,99,0.04,,,1.16,meteobridge,2013-12-23 15:27:00,
2013-12-23 10:33:00,58.1,57.7,29.98,SW,225,0.7,2.2,99,0.01,,,1.16,meteobridge,2013-12-23 15:33:00,
2013-12-23 10:39:00,57.9,57.6,29.98,SW,225,3.8,3.8,99,0.01,,,1.16,meteobridge,2013-12-23 15:39:00,
2013-12-23 10:45:00,57.9,57.6,29.98,SW,225,0.0,1.6,99,0.01,,,1.16,meteobridge,2013-12-23 15:45:00,
2013-12-23 10:51:00,57.6,57.2,29.97,SW,225,2.2,2.2,99,0.01,,,1.16,meteobridge,2013-12-23 15:51:00,
2013-12-23 10:56:00,57.7,57.4,29.99,SW,225,2.2,3.1,99,0.01,,,1.16,meteobridge,2013-12-23 15:56:00,
2013-12-23 11:02:00,57.7,57.4,29.99,SW,225,3.1,3.1,99,0.01,,,1.16,meteobridge,2013-12-23 16:02:00,
2013-12-23 11:08:00,57.6,57.2,29.99,SW,225,2.2,3.1,99,0.00,,,1.16,meteobridge,2013-12-23 16:08:00,
2013-12-23 11:14:00,57.6,57.2,29.99,SW,225,1.6,1.6,99,0.00,,,1.16,meteobridge,2013-12-23 16:14:00,
2013-12-23 11:20:00,57.6,57.2,29.98,SW,225,0.0,3.1,99,0.00,,,1.16,meteobridge,2013-12-23 16:20:00,
2013-12-23 11:26:00,57.6,57.2,29.98,SW,225,0.0,2.2,99,0.00,,,1.16,meteobridge,2013-12-23 16:26:00,
2013-12-23 11:32:00,57.6,57.2,29.96,SW,225,0.7,3.1,99,0.00,,,1.16,meteobridge,2013-12-23 16:32:00,
2013-12-23 11:38:00,57.7,57.4,29.96,SW,225,0.0,0.7,99,0.00,,,1.16,meteobridge,2013-12-23 16:38:00,
2013-12-23 11:43:00,57.7,57.4,29.97,SW,225,2.2,3.1,99,0.00,,,1.16,meteobridge,2013-12-23 16:43:00,
2013-12-23 11:49:00,57.7,57.4,29.98,SW,225,2.2,3.1,99,0.00,,,1.16,meteobridge,2013-12-23 16:49:00,
2013-12-23 11:55:00,57.7,57.4,29.97,SW,225,0.7,2.2,99,0.00,,,1.16,meteobridge,2013-12-23 16:55:00,
2013-12-23 12:01:00,57.6,57.2,29.96,SW,225,2.2,2.2,99,0.00,,,1.16,meteobridge,2013-12-23 17:01:00,
2013-12-23 12:07:00,57.6,57.2,29.96,SW,225,2.2,2.2,99,0.00,,,1.16,meteobridge,2013-12-23 17:07:00,
2013-12-23 12:13:00,57.7,57.4,29.98,SW,225,0.7,3.1,99,0.00,,,1.16,meteobridge,2013-12-23 17:13:00,
2013-12-23 12:19:00,57.7,57.4,29.96,SW,225,0.7,0.7,99,0.00,,,1.16,meteobridge,2013-12-23 17:19:00,
2013-12-23 12:25:00,57.6,57.2,29.96,SW,225,2.2,2.2,99,0.00,,,1.16,meteobridge,2013-12-23 17:25:00,
2013-12-23 12:30:00,57.6,57.2,29.97,SW,225,2.2,3.8,99,0.00,,,1.16,meteobridge,2013-12-23 17:30:00,
2013-12-23 12:36:00,57.6,57.2,29.97,SW,225,0.0,0.7,99,0.00,,,1.16,meteobridge,2013-12-23 17:36:00,
2013-12-23 12:42:00,57.6,57.2,29.96,SW,225,0.0,2.2,99,0.00,,,1.16,meteobridge,2013-12-23 17:42:00,
2013-12-23 12:48:00,57.6,57.2,29.96,SW,225,0.0,0.0,99,0.00,,,1.16,meteobridge,2013-12-23 17:48:00,
2013-12-23 12:54:00,57.7,57.4,29.96,SW,225,0.0,0.0,99,0.00,,,1.16,meteobridge,2013-12-23 17:54:00,
2013-12-23 13:00:00,57.6,57.2,29.96,SW,225,0.0,0.0,99,0.00,,,1.16,meteobridge,2013-12-23 18:00:00,
2013-12-23 13:06:00,57.6,57.2,29.96,SW,225,0.0,0.0,99,0.00,,,1.16,meteobridge,2013-12-23 18:06:00,
2013-12-23 13:12:00,57.6,57.2,29.96,SW,225,0.0,1.6,99,0.00,,,1.16,meteobridge,2013-12-23 18:12:00,
2013-12-23 13:17:00,57.7,57.4,29.96,SW,225,0.0,0.0,99,0.00,,,1.16,meteobridge,2013-12-23 18:17:00,
2013-12-23 13:23:00,58.3,57.9,29.96,SW,225,0.0,0.0,99,0.00,,,1.16,meteobridge,2013-12-23 18:23:00,
2013-12-23 13:29:00,58.5,58.1,29.95,SW,225,1.6,1.6,99,0.00,,,1.16,meteobridge,2013-12-23 18:29:00,
2013-12-23 13:35:00,58.6,58.3,29.95,SW,225,1.6,1.6,99,0.00,,,1.16,meteobridge,2013-12-23 18:35:00,
2013-12-23 13:41:00,58.8,58.5,29.95,SW,225,1.6,1.6,99,0.00,,,1.16,meteobridge,2013-12-23 18:41:00,
2013-12-23 13:47:00,58.8,58.5,29.96,SW,225,0.0,3.1,99,0.00,,,1.16,meteobridge,2013-12-23 18:47:00,
2013-12-23 13:53:00,58.8,58.5,29.96,SW,225,3.1,3.1,99,0.00,,,1.16,meteobridge,2013-12-23 18:53:00,
2013-12-23 13:59:00,58.8,58.5,29.95,SW,225,1.6,2.2,99,0.00,,,1.16,meteobridge,2013-12-23 18:59:00,
2013-12-23 14:04:00,58.8,58.5,29.95,SW,225,0.7,0.7,99,0.00,,,1.16,meteobridge,2013-12-23 19:04:00,
2013-12-23 14:10:00,59.4,59.0,29.95,SW,225,1.6,1.6,99,0.00,,,1.16,meteobridge,2013-12-23 19:10:00,
2013-12-23 14:16:00,59.5,59.2,29.96,SW,225,0.7,0.7,99,0.00,,,1.16,meteobridge,2013-12-23 19:16:00,
2013-12-23 14:22:00,59.4,59.0,29.96,SW,225,1.6,1.6,99,0.00,,,1.16,meteobridge,2013-12-23 19:22:00,
2013-12-23 14:28:00,59.2,58.8,29.96,SW,225,2.2,2.2,99,0.00,,,1.16,meteobridge,2013-12-23 19:28:00,
2013-12-23 14:34:00,59.2,58.8,29.96,SW,225,0.0,1.6,99,0.00,,,1.16,meteobridge,2013-12-23 19:34:00,
2013-12-23 14:40:00,59.2,58.8,29.96,SW,225,1.6,2.2,99,0.00,,,1.16,meteobridge,2013-12-23 19:40:00,
2013-12-23 14:46:00,59.2,58.8,29.96,SW,225,0.7,1.6,99,0.00,,,1.16,meteobridge,2013-12-23 19:46:00,
2013-12-23 14:51:00,59.2,58.8,29.96,SW,225,1.6,1.6,99,0.00,,,1.16,meteobridge,2013-12-23 19:51:00,
2013-12-23 14:57:00,59.4,59.0,29.96,SW,225,0.7,0.7,99,0.00,,,1.16,meteobridge,2013-12-23 19:57:00,
2013-12-23 15:03:00,59.4,59.0,29.96,SW,225,0.0,0.0,99,0.00,,,1.16,meteobridge,2013-12-23 20:03:00,
2013-12-23 15:09:00,59.2,58.8,29.96,SW,225,0.0,1.6,99,0.00,,,1.16,meteobridge,2013-12-23 20:09:00,
2013-12-23 15:15:00,59.4,59.0,29.96,SW,225,0.0,0.0,99,0.00,,,1.16,meteobridge,2013-12-23 20:15:00,
2013-12-23 15:21:00,59.4,59.0,29.97,SW,225,0.7,0.7,99,0.00,,,1.16,meteobridge,2013-12-23 20:21:00,
2013-12-23 15:27:00,59.0,58.6,29.97,SW,225,2.2,4.5,99,0.00,,,1.16,meteobridge,2013-12-23 20:27:00,
2013-12-23 15:33:00,58.6,58.3,29.97,SW,225,1.6,1.6,99,0.00,,,1.16,meteobridge,2013-12-23 20:33:00,
2013-12-23 15:38:00,57.7,57.4,29.98,SW,225,0.0,0.0,99,0.00,,,1.16,meteobridge,2013-12-23 20:38:00,
2013-12-23 15:44:00,57.9,57.6,29.98,SW,225,0.0,0.0,99,0.00,,,1.16,meteobridge,2013-12-23 20:44:00,
2013-12-23 15:50:00,57.6,57.2,29.98,SW,225,0.0,0.0,99,0.00,,,1.16,meteobridge,2013-12-23 20:50:00,
2013-12-23 15:56:00,56.8,56.5,29.98,West,270,0.7,1.6,99,0.00,,,1.16,meteobridge,2013-12-23 20:56:00,
2013-12-23 16:02:00,57.0,56.7,29.98,West,270,3.1,3.1,99,0.00,,,1.16,meteobridge,2013-12-23 21:02:00,
2013-12-23 16:08:00,56.5,56.1,29.98,SW,225,2.2,3.1,99,0.00,,,1.16,meteobridge,2013-12-23 21:08:00,
2013-12-23 16:14:00,56.1,55.8,29.98,SW,225,1.6,1.6,99,0.00,,,1.16,meteobridge,2013-12-23 21:14:00,
2013-12-23 16:20:00,55.9,55.6,29.98,NW,315,0.7,1.6,99,0.00,,,1.16,meteobridge,2013-12-23 21:20:00,
2013-12-23 16:25:00,55.9,55.6,29.98,NW,315,1.6,1.6,99,0.00,,,1.16,meteobridge,2013-12-23 21:25:00,
2013-12-23 16:31:00,55.2,54.9,29.98,West,270,0.7,0.7,99,0.00,,,1.16,meteobridge,2013-12-23 21:31:00,
2013-12-23 16:37:00,55.0,54.7,29.99,NW,315,0.0,0.0,99,0.00,,,1.16,meteobridge,2013-12-23 21:37:00,
2013-12-23 16:43:00,55.0,54.7,29.99,NW,315,0.0,0.0,99,0.00,,,1.16,meteobridge,2013-12-23 21:43:00,
2013-12-23 16:49:00,55.0,54.7,29.99,NW,315,0.0,-999.0,99,0.00,,,1.16,meteobridge,2013-12-23 21:49:00,
2013-12-23 16:55:00,54.3,54.0,30.00,NW,315,2.2,2.2,99,0.00,,,1.16,meteobridge,2013-12-23 21:55:00,
2013-12-23 17:01:00,54.1,53.8,29.99,NW,315,0.0,0.0,99,0.00,,,1.16,meteobridge,2013-12-23 22:01:00,
2013-12-23 17:07:00,54.1,53.8,30.00,NW,315,0.0,0.0,99,0.00,,,1.16,meteobridge,2013-12-23 22:07:00,
2013-12-23 17:12:00,53.6,53.2,30.00,NW,315,1.6,1.6,99,0.00,,,1.16,meteobridge,2013-12-23 22:12:00,
2013-12-23 17:18:00,53.6,53.2,30.00,NW,315,1.6,1.6,99,0.00,,,1.16,meteobridge,2013-12-23 22:18:00,
2013-12-23 17:24:00,53.6,53.2,30.00,NW,315,1.6,-999.0,99,0.00,,,1.16,meteobridge,2013-12-23 22:24:00,
2013-12-23 17:30:00,-999.0,-99.9,30.00,North,-999,-999.0,-999.0,-999,0.00,,,1.16,meteobridge,2013-12-23 22:30:00,
2013-12-23 17:36:00,52.5,52.2,30.00,NW,315,0.0,0.0,99,0.00,,,1.16,meteobridge,2013-12-23 22:36:00,
2013-12-23 17:42:00,52.3,52.0,30.00,West,270,1.6,1.6,99,0.00,,,1.16,meteobridge,2013-12-23 22:42:00,
2013-12-23 17:48:00,52.3,52.0,30.01,NW,315,3.1,3.1,99,0.00,,,1.16,meteobridge,2013-12-23 22:48:00,
2013-12-23 17:54:00,52.3,52.0,30.01,SW,225,0.7,3.1,99,0.00,,,1.16,meteobridge,2013-12-23 22:54:00,
2013-12-23 17:59:00,52.3,52.0,30.01,West,270,3.1,3.1,99,0.00,,,1.16,meteobridge,2013-12-23 22:59:00,
2013-12-23 18:05:00,52.3,52.0,30.01,West,270,3.1,3.1,99,0.00,,,1.16,meteobridge,2013-12-23 23:05:00,
2013-12-23 18:11:00,52.0,51.6,30.01,SW,225,1.6,1.6,99,0.00,,,1.16,meteobridge,2013-12-23 23:11:00,
2013-12-23 18:17:00,51.8,51.3,30.01,West,270,5.4,5.4,98,0.00,,,1.16,meteobridge,2013-12-23 23:17:00,
2013-12-23 18:23:00,51.6,51.1,30.01,West,270,2.2,2.2,98,0.00,,,1.16,meteobridge,2013-12-23 23:23:00,
2013-12-23 18:29:00,51.3,50.4,30.02,West,270,5.4,5.4,97,0.00,,,1.16,meteobridge,2013-12-23 23:29:00,
2013-12-23 18:35:00,51.3,50.2,30.02,West,270,2.2,2.2,96,0.00,,,1.16,meteobridge,2013-12-23 23:35:00,
2013-12-23 18:40:00,51.1,50.2,30.02,NE,45,1.6,3.1,97,0.00,,,1.16,meteobridge,2013-12-23 23:40:00,
2013-12-23 18:46:00,50.7,49.8,30.02,North,0,4.5,4.5,97,0.00,,,1.16,meteobridge,2013-12-23 23:46:00,
2013-12-23 18:52:00,50.5,49.6,30.02,NW,315,1.6,1.6,97,0.00,,,1.16,meteobridge,2013-12-23 23:52:00,
2013-12-23 18:58:00,50.4,49.8,30.02,West,270,0.7,0.7,98,0.00,,,1.16,meteobridge,2013-12-23 23:58:00,
2013-12-23 19:04:00,50.2,49.8,30.03,NW,315,2.2,2.2,99,0.00,,,0.00,meteobridge,2013-12-24 00:04:00,
2013-12-23 19:10:00,49.8,49.5,30.03,NW,315,0.0,3.1,99,0.00,,,0.00,meteobridge,2013-12-24 00:10:00,
2013-12-23 19:16:00,49.6,49.1,30.03,West,270,6.0,6.0,98,0.00,,,0.00,meteobridge,2013-12-24 00:16:00,
2013-12-23 19:22:00,49.5,49.3,30.03,WNW,293,2.2,2.2,99,0.00,,,0.00,meteobridge,2013-12-24 00:22:00,
2013-12-23 19:27:00,49.1,48.9,30.03,NW,315,1.6,2.2,99,0.00,,,0.00,meteobridge,2013-12-24 00:27:00,
2013-12-23 19:33:00,49.1,48.9,30.03,NW,315,1.6,1.6,99,0.00,,,0.00,meteobridge,2013-12-24 00:33:00,
2013-12-23 19:39:00,48.7,48.6,30.03,West,270,0.7,0.7,99,0.00,,,0.00,meteobridge,2013-12-24 00:39:00,
2013-12-23 19:45:00,48.7,48.6,30.04,North,0,1.6,3.1,99,0.00,,,0.00,meteobridge,2013-12-24 00:45:00,
2013-12-23 19:51:00,48.6,48.4,30.04,North,0,2.2,2.2,99,0.00,,,0.00,meteobridge,2013-12-24 00:51:00,
2013-12-23 19:57:00,48.4,48.2,30.04,North,0,2.2,2.2,99,0.00,,,0.00,meteobridge,2013-12-24 00:57:00,
2013-12-23 20:03:00,48.4,48.2,30.04,North,0,2.2,2.2,99,0.00,,,0.00,meteobridge,2013-12-24 01:03:00,
2013-12-23 20:09:00,48.0,47.5,30.04,North,0,1.6,3.8,98,0.00,,,0.00,meteobridge,2013-12-24 01:09:00,
2013-12-23 20:14:00,47.8,47.3,30.05,North,0,0.7,2.2,98,0.00,,,0.00,meteobridge,2013-12-24 01:14:00,
2013-12-23 20:20:00,47.7,47.5,30.04,NW,315,0.0,0.0,99,0.00,,,0.00,meteobridge,2013-12-24 01:20:00,
2013-12-23 20:26:00,47.5,47.3,30.04,SW,225,0.0,0.0,99,0.00,,,0.00,meteobridge,2013-12-24 01:26:00,
2013-12-23 20:32:00,47.3,47.1,30.05,NW,315,0.7,0.7,99,0.00,,,0.00,meteobridge,2013-12-24 01:32:00,
2013-12-23 20:38:00,46.9,46.8,30.05,NW,315,1.6,1.6,99,0.00,,,0.00,meteobridge,2013-12-24 01:38:00,
2013-12-23 20:44:00,46.8,46.6,30.05,NW,315,0.7,1.6,99,0.00,,,0.00,meteobridge,2013-12-24 01:44:00,
2013-12-23 20:50:00,46.8,46.6,30.05,SW,225,0.0,0.0,99,0.00,,,0.00,meteobridge,2013-12-24 01:50:00,
2013-12-23 20:56:00,46.0,45.9,30.06,NW,315,0.7,0.7,99,0.00,,,0.00,meteobridge,2013-12-24 01:56:00,
2013-12-23 21:01:00,46.0,45.9,30.06,NW,315,0.7,0.7,99,0.00,,,0.00,meteobridge,2013-12-24 02:01:00,
2013-12-23 21:07:00,45.7,45.5,30.06,SW,225,2.2,2.2,99,0.00,,,0.00,meteobridge,2013-12-24 02:07:00,
2013-12-23 21:13:00,45.9,45.7,30.06,SW,225,0.7,2.2,99,0.00,,,0.00,meteobridge,2013-12-24 02:13:00,
2013-12-23 21:19:00,45.9,45.7,30.06,NE,45,1.6,5.4,99,0.00,,,0.00,meteobridge,2013-12-24 02:19:00,
2013-12-23 21:25:00,46.0,45.9,30.07,SW,225,0.0,1.6,99,0.00,,,0.00,meteobridge,2013-12-24 02:25:00,
2013-12-23 21:31:00,46.0,45.9,30.07,SW,225,0.0,0.0,99,0.00,,,0.00,meteobridge,2013-12-24 02:31:00,
2013-12-23 21:37:00,46.0,45.9,30.06,NW,315,0.0,1.6,99,0.00,,,0.00,meteobridge,2013-12-24 02:37:00,
2013-12-23 21:43:00,46.0,45.9,30.07,West,270,4.5,4.5,99,0.00,,,0.00,meteobridge,2013-12-24 02:43:00,
2013-12-23 21:48:00,46.0,45.9,30.07,NW,315,3.1,3.1,99,0.00,,,0.00,meteobridge,2013-12-24 02:48:00,
2013-12-23 21:54:00,46.0,45.5,30.07,NW,315,1.6,3.8,98,0.00,,,0.00,meteobridge,2013-12-24 02:54:00,
2013-12-23 22:00:00,45.9,44.8,30.07,NW,315,3.1,3.1,96,0.00,,,0.00,meteobridge,2013-12-24 03:00:00,
2013-12-23 22:06:00,45.9,44.8,30.08,NW,315,3.1,3.1,96,0.00,,,0.00,meteobridge,2013-12-24 03:06:00,
2013-12-23 22:12:00,45.9,44.2,30.07,NW,315,1.6,1.6,94,0.00,,,0.00,meteobridge,2013-12-24 03:12:00,
2013-12-23 22:18:00,45.9,44.2,30.08,NW,315,1.6,2.2,94,0.00,,,0.00,meteobridge,2013-12-24 03:18:00,
2013-12-23 22:24:00,45.7,44.1,30.08,NW,315,3.8,3.8,94,0.00,,,0.00,meteobridge,2013-12-24 03:24:00,
2013-12-23 22:30:00,45.5,43.9,30.08,NW,315,3.8,3.8,94,0.00,,,0.00,meteobridge,2013-12-24 03:30:00,
2013-12-23 22:36:00,45.5,43.9,30.08,North,0,2.2,2.2,94,0.00,,,0.00,meteobridge,2013-12-24 03:36:00,
2013-12-23 22:41:00,45.5,43.9,30.08,North,0,2.2,2.2,94,0.00,,,0.00,meteobridge,2013-12-24 03:41:00,
2013-12-23 22:47:00,45.3,44.1,30.07,NW,315,0.7,0.7,95,0.00,,,0.00,meteobridge,2013-12-24 03:47:00,
2013-12-23 22:53:00,45.1,43.5,30.07,West,270,1.6,1.6,94,0.00,,,0.00,meteobridge,2013-12-24 03:53:00,
2013-12-23 22:59:00,45.1,43.9,30.08,West,270,0.0,0.0,95,0.00,,,0.00,meteobridge,2013-12-24 03:59:00,
2013-12-23 23:05:00,45.0,43.7,30.08,NW,315,0.0,0.0,95,0.00,,,0.00,meteobridge,2013-12-24 04:05:00,
2013-12-23 23:11:00,44.8,43.7,30.08,West,270,0.0,0.0,96,0.00,,,0.00,meteobridge,2013-12-24 04:11:00,
2013-12-23 23:17:00,44.8,43.7,30.07,NW,315,0.0,0.0,96,0.00,,,0.00,meteobridge,2013-12-24 04:17:00,
2013-12-23 23:22:00,44.4,43.7,30.08,NW,315,0.7,1.6,97,0.00,,,0.00,meteobridge,2013-12-24 04:22:00,
2013-12-23 23:28:00,44.4,43.7,30.08,NW,315,0.0,0.7,97,0.00,,,0.00,meteobridge,2013-12-24 04:28:00,
2013-12-23 23:34:00,44.2,43.7,30.08,NW,315,0.0,0.0,98,0.00,,,0.00,meteobridge,2013-12-24 04:34:00,
2013-12-23 23:40:00,44.2,44.1,30.08,NW,315,0.7,0.7,99,0.00,,,0.00,meteobridge,2013-12-24 04:40:00,
2013-12-23 23:46:00,44.1,43.9,30.09,NW,315,0.0,0.0,99,0.00,,,0.00,meteobridge,2013-12-24 04:46:00,
2013-12-23 23:52:00,44.1,43.9,30.08,NW,315,0.7,0.7,99,0.00,,,0.00,meteobridge,2013-12-24 04:52:00,
2013-12-23 23:58:00,44.1,43.9,30.08,NW,315,1.6,1.6,99,0.00,,,0.00,meteobridge,2013-12-24 04:58:00,